Time;durP1;ratioP1;P1;durP2;ratioP2;P2;SDS_P1;SDS_P2;PMS_P1;PMS_P2;Temp;Humidity;BMP_temperature;BMP_pressure;BME280_temperature;BME280_humidity;BME280_pressure;Samples;Min_cycle;Max_cycle;Signal;HPM_P1;HPM_P2
2023/12/06 00:02:44;;;;;;;89.20;80.45;;;24.90;59.60;;;;;;6222610;28;89364;-62
2023/12/06 00:05:47;;;;;;;77.68;70.03;;;24.80;60.50;;;;;;6217145;28;89194;-62
2023/12/06 00:08:49;;;;;;;83.13;75.13;;;24.90;60.00;;;;;;6217056;28;89077;-63
2023/12/06 00:11:51;;;;;;;125.18;113.43;;;24.80;60.10;;;;;;6218997;28;88339;-62
2023/12/06 00:14:53;;;;;;;114.47;103.80;;;24.80;59.70;;;;;;6225525;28;89162;-62
2023/12/06 00:17:55;;;;;;;103.97;94.35;;;24.80;59.70;;;;;;6227325;28;89144;-62
2023/12/06 00:20:58;;;;;;;97.45;88.43;;;24.80;59.90;;;;;;6230790;28;90165;-63
2023/12/06 00:24:00;;;;;;;94.88;85.97;;;24.70;60.00;;;;;;6221210;28;87982;-62
2023/12/06 00:27:02;;;;;;;91.32;82.93;;;24.70;60.00;;;;;;6226190;28;89064;-63
2023/12/06 00:30:05;;;;;;;88.97;80.82;;;24.70;60.10;;;;;;6230420;28;87989;-63
2023/12/06 00:33:07;;;;;;;84.80;76.97;;;24.70;60.30;;;;;;6225556;28;89012;-63
2023/12/06 00:36:11;;;;;;;82.68;74.97;;;24.70;60.40;;;;;;6225666;28;89062;-63
2023/12/06 00:39:13;;;;;;;81.32;73.65;;;24.70;60.50;;;;;;6212295;28;88086;-63
2023/12/06 00:42:15;;;;;;;78.45;71.03;;;24.70;60.60;;;;;;6211801;28;88801;-62
2023/12/06 00:45:17;;;;;;;74.55;67.45;;;24.70;60.80;;;;;;6216333;28;89093;-63
2023/12/06 00:48:19;;;;;;;73.13;66.15;;;24.70;60.90;;;;;;6212600;28;89116;-62
2023/12/06 00:51:22;;;;;;;69.72;63.13;;;24.70;61.00;;;;;;6207511;28;90258;-63
2023/12/06 00:54:25;;;;;;;69.60;63.15;;;24.70;61.10;;;;;;6208464;28;88008;-62
2023/12/06 00:57:26;;;;;;;67.95;61.38;;;24.70;61.10;;;;;;6217722;28;89119;-63
2023/12/06 01:00:30;;;;;;;66.03;59.78;;;24.70;61.10;;;;;;6228535;28;90683;-62
2023/12/06 01:03:32;;;;;;;63.03;57.03;;;24.70;61.30;;;;;;6222519;28;89188;-63
2023/12/06 01:06:35;;;;;;;62.72;56.65;;;24.70;61.30;;;;;;6213356;28;88992;-62
2023/12/06 01:09:37;;;;;;;60.75;55.05;;;24.70;61.40;;;;;;6224797;28;90382;-62
2023/12/06 01:12:39;;;;;;;61.35;55.55;;;24.70;61.50;;;;;;6210641;28;88630;-62
2023/12/06 01:15:41;;;;;;;59.03;53.42;;;24.70;61.50;;;;;;6229373;28;89216;-62
2023/12/06 01:18:45;;;;;;;57.40;51.85;;;24.70;61.60;;;;;;6223566;28;89098;-62
2023/12/06 01:21:48;;;;;;;53.38;48.35;;;24.70;61.60;;;;;;6216832;28;90052;-63
2023/12/06 01:24:50;;;;;;;55.53;50.35;;;24.70;61.80;;;;;;6218166;28;89221;-63
2023/12/06 01:27:52;;;;;;;53.72;48.53;;;24.60;62.00;;;;;;6227308;28;88934;-63
2023/12/06 01:30:54;;;;;;;52.00;47.03;;;24.70;62.00;;;;;;6238125;28;88276;-62
2023/12/06 01:33:56;;;;;;;50.58;45.78;;;24.70;62.10;;;;;;6225481;28;89094;-62
2023/12/06 01:36:59;;;;;;;49.15;44.53;;;24.60;62.00;;;;;;6212182;28;89053;-62
2023/12/06 01:40:03;;;;;;;48.25;43.70;;;24.60;62.00;;;;;;6226453;28;89138;-62
2023/12/06 01:43:05;;;;;;;47.90;43.40;;;24.60;62.00;;;;;;6233870;28;88382;-63
2023/12/06 01:46:07;;;;;;;46.20;41.80;;;24.60;62.10;;;;;;6225820;28;89055;-63
2023/12/06 01:49:11;;;;;;;46.50;42.17;;;24.60;62.20;;;;;;6226005;28;89098;-63
2023/12/06 01:52:14;;;;;;;44.55;40.35;;;24.60;62.30;;;;;;6227450;28;90095;-63
2023/12/06 01:55:16;;;;;;;43.53;39.53;;;24.60;62.30;;;;;;6225814;28;89070;-63
2023/12/06 01:58:18;;;;;;;43.83;39.50;;;24.60;62.40;;;;;;6225773;28;88145;-62
2023/12/06 02:01:20;;;;;;;43.72;39.50;;;24.60;62.50;;;;;;6225515;28;88994;-62
2023/12/06 02:04:23;;;;;;;42.38;38.35;;;24.60;62.50;;;;;;6213466;28;87965;-63
2023/12/06 02:07:28;;;;;;;40.03;36.22;;;24.60;62.60;;;;;;6216700;28;89094;-63
2023/12/06 02:10:30;;;;;;;39.65;35.97;;;24.60;62.60;;;;;;6223926;28;89172;-63
2023/12/06 02:13:32;;;;;;;39.65;35.85;;;24.60;62.70;;;;;;6233675;28;89770;-63
2023/12/06 02:16:34;;;;;;;38.95;35.28;;;24.60;62.70;;;;;;6235765;28;89136;-63
2023/12/06 02:19:36;;;;;;;37.47;34.03;;;24.60;62.70;;;;;;6224671;28;87995;-62
2023/12/06 02:22:40;;;;;;;38.03;34.53;;;24.60;62.80;;;;;;6230306;28;89903;-63
2023/12/06 02:25:43;;;;;;;35.90;32.40;;;24.50;62.80;;;;;;6226835;28;89034;-63
2023/12/06 02:28:45;;;;;;;36.08;32.65;;;24.50;62.80;;;;;;6221957;28;89052;-63
2023/12/06 02:31:47;;;;;;;34.45;31.23;;;24.50;62.80;;;;;;6226131;28;89130;-62
2023/12/06 02:34:51;;;;;;;34.13;30.98;;;24.50;62.80;;;;;;6221624;28;89054;-63
2023/12/06 02:37:56;;;;;;;34.60;31.13;;;24.50;62.90;;;;;;6223644;28;89106;-63
2023/12/06 02:41:03;;;;;;;33.72;30.52;;;24.50;62.90;;;;;;6231549;28;89528;-62
2023/12/06 02:44:05;;;;;;;33.03;29.83;;;24.60;63.00;;;;;;6239247;28;87995;-63
2023/12/06 02:47:07;;;;;;;32.50;29.35;;;24.60;63.00;;;;;;6218826;28;89104;-62
2023/12/06 02:50:09;;;;;;;31.88;28.88;;;24.50;63.00;;;;;;6229399;28;89150;-62
2023/12/06 02:53:11;;;;;;;30.38;27.58;;;24.50;63.00;;;;;;6213332;28;90160;-63
2023/12/06 02:56:15;;;;;;;32.03;28.92;;;24.60;63.00;;;;;;6219288;28;89029;-63
2023/12/06 02:59:17;;;;;;;29.52;26.83;;;24.50;63.00;;;;;;6222024;28;89168;-63
2023/12/06 03:02:19;;;;;;;30.75;27.85;;;24.50;63.00;;;;;;6218534;28;88951;-62
2023/12/06 03:05:21;;;;;;;29.65;26.77;;;24.50;63.00;;;;;;6229833;28;88386;-62
2023/12/06 03:08:22;;;;;;;28.75;25.95;;;24.60;63.20;;;;;;6218481;28;89133;-63
2023/12/06 03:11:26;;;;;;;27.80;25.13;;;24.50;63.10;;;;;;6217187;28;94019;-63
2023/12/06 03:14:29;;;;;;;28.83;26.02;;;24.50;63.20;;;;;;6230643;28;93272;-63
2023/12/06 03:17:31;;;;;;;26.90;24.35;;;24.50;63.20;;;;;;6218051;28;94237;-63
2023/12/06 03:20:33;;;;;;;28.65;25.85;;;24.50;63.20;;;;;;6217373;28;94141;-63
2023/12/06 03:23:35;;;;;;;27.05;24.40;;;24.50;63.20;;;;;;6206866;28;95122;-63
2023/12/06 03:26:38;;;;;;;26.23;23.63;;;24.50;63.20;;;;;;6217423;28;94071;-63
2023/12/06 03:29:40;;;;;;;25.55;23.13;;;24.50;63.20;;;;;;6220735;28;92952;-63
2023/12/06 03:32:43;;;;;;;26.45;23.95;;;24.50;63.30;;;;;;6217411;28;94089;-63
2023/12/06 03:35:45;;;;;;;25.67;23.17;;;24.50;63.30;;;;;;6224306;28;94105;-63
2023/12/06 03:38:47;;;;;;;24.65;22.17;;;24.50;63.20;;;;;;6231913;28;94097;-63
2023/12/06 03:41:50;;;;;;;25.15;22.75;;;24.50;63.30;;;;;;6216091;28;95540;-63
2023/12/06 03:44:52;;;;;;;23.65;21.40;;;24.50;63.30;;;;;;6216803;28;93342;-63
2023/12/06 03:47:54;;;;;;;23.25;20.95;;;24.50;63.30;;;;;;6234116;28;94138;-63
2023/12/06 03:50:56;;;;;;;23.73;21.42;;;24.50;63.30;;;;;;6230289;28;94550;-63
2023/12/06 03:53:58;;;;;;;23.08;20.88;;;24.50;63.30;;;;;;6219568;28;95062;-63
2023/12/06 03:57:01;;;;;;;22.88;20.65;;;24.50;63.40;;;;;;6209254;28;94141;-63
2023/12/06 04:00:04;;;;;;;23.38;21.05;;;24.50;63.40;;;;;;6224045;28;94147;-63
2023/12/06 04:03:08;;;;;;;22.00;20.00;;;24.50;63.40;;;;;;6231633;28;94146;-63
2023/12/06 04:06:11;;;;;;;24.05;21.40;;;24.50;63.40;;;;;;6217777;28;94297;-63
2023/12/06 04:09:13;;;;;;;23.55;21.25;;;24.50;63.50;;;;;;6226896;28;94540;-63
2023/12/06 04:12:16;;;;;;;21.65;19.65;;;24.50;63.50;;;;;;6227423;28;94135;-63
2023/12/06 04:15:18;;;;;;;20.65;18.75;;;24.60;63.50;;;;;;6247659;28;93424;-63
2023/12/06 04:18:20;;;;;;;20.58;18.58;;;24.60;63.50;;;;;;6233455;28;93145;-63
2023/12/06 04:21:22;;;;;;;20.20;18.30;;;24.60;63.40;;;;;;6230530;28;94283;-63
2023/12/06 04:24:25;;;;;;;20.35;18.45;;;24.60;63.40;;;;;;6223932;28;95356;-63
2023/12/06 04:27:28;;;;;;;21.95;19.70;;;24.60;63.40;;;;;;6217628;28;94413;-63
2023/12/06 04:30:30;;;;;;;20.23;18.33;;;24.70;63.50;;;;;;6216446;28;94159;-62
2023/12/06 04:33:32;;;;;;;19.05;17.25;;;24.60;63.30;;;;;;6218199;28;94042;-63
2023/12/06 04:36:34;;;;;;;20.10;18.10;;;24.70;63.40;;;;;;6212176;28;94105;-62
2023/12/06 04:39:36;;;;;;;19.10;17.20;;;24.70;63.30;;;;;;6206314;28;94476;-63
2023/12/06 04:42:40;;;;;;;19.35;17.45;;;24.70;63.30;;;;;;6221182;28;94159;-63
2023/12/06 04:45:42;;;;;;;18.15;16.45;;;24.70;63.30;;;;;;6219538;28;93389;-63
2023/12/06 04:48:44;;;;;;;18.50;16.77;;;24.70;63.30;;;;;;6228635;28;94072;-62
2023/12/06 04:51:46;;;;;;;18.45;16.70;;;24.70;63.30;;;;;;6228193;28;94124;-63
2023/12/06 04:54:48;;;;;;;18.80;17.00;;;24.70;63.30;;;;;;6220337;28;95171;-63
2023/12/06 04:57:52;;;;;;;18.25;16.52;;;24.70;63.30;;;;;;6215521;28;96443;-63
2023/12/06 05:00:55;;;;;;;17.98;16.20;;;24.70;63.30;;;;;;6202256;28;94113;-62
2023/12/06 05:03:57;;;;;;;18.60;16.70;;;24.70;63.40;;;;;;6222053;28;94186;-63
2023/12/06 05:06:59;;;;;;;17.77;16.02;;;24.70;63.30;;;;;;6211150;28;94273;-63
2023/12/06 05:10:01;;;;;;;16.33;14.82;;;24.70;63.30;;;;;;6230558;28;94083;-63
2023/12/06 05:13:04;;;;;;;16.85;15.30;;;24.70;63.30;;;;;;6209503;28;94219;-63
2023/12/06 05:16:07;;;;;;;17.48;15.77;;;24.70;63.30;;;;;;6211788;28;93435;-63
2023/12/06 05:19:11;;;;;;;17.35;15.65;;;24.80;63.40;;;;;;6200232;28;95059;-63
2023/12/06 05:22:15;;;;;;;17.48;15.68;;;24.80;63.30;;;;;;6232241;28;94207;-63
2023/12/06 05:25:17;;;;;;;16.48;14.98;;;24.80;63.30;;;;;;6209686;28;95164;-63
2023/12/06 05:28:21;;;;;;;16.02;14.63;;;24.80;63.30;;;;;;6210222;28;94272;-63
2023/12/06 05:31:23;;;;;;;16.73;15.13;;;24.80;63.30;;;;;;6212503;28;94181;-63
2023/12/06 05:34:25;;;;;;;16.23;14.60;;;24.80;63.30;;;;;;6216774;28;95091;-63
2023/12/06 05:37:26;;;;;;;15.68;14.18;;;24.80;63.30;;;;;;6213603;28;94111;-63
2023/12/06 05:40:29;;;;;;;16.13;14.63;;;24.70;63.30;;;;;;6180424;28;1216159;-63
2023/12/06 05:43:32;;;;;;;15.82;14.32;;;24.80;63.30;;;;;;6232494;28;94459;-63
2023/12/06 05:46:34;;;;;;;15.63;14.13;;;24.80;63.40;;;;;;6210528;28;93546;-63
2023/12/06 05:49:36;;;;;;;15.02;13.63;;;24.70;63.30;;;;;;6209871;28;92959;-63
2023/12/06 05:52:38;;;;;;;15.40;13.95;;;24.80;63.50;;;;;;6206860;28;94204;-63
2023/12/06 05:55:40;;;;;;;15.63;14.15;;;24.70;63.50;;;;;;6194734;28;95267;-63
2023/12/06 05:58:44;;;;;;;15.65;14.15;;;24.70;63.50;;;;;;6192131;28;94086;-63
2023/12/06 06:01:46;;;;;;;15.23;13.70;;;24.70;63.50;;;;;;6214045;28;93140;-63
2023/12/06 06:04:48;;;;;;;15.23;13.75;;;24.70;63.50;;;;;;6214697;28;94028;-63
2023/12/06 06:07:50;;;;;;;15.57;14.07;;;24.70;63.50;;;;;;6212362;28;94618;-63
2023/12/06 06:10:52;;;;;;;15.57;14.07;;;24.70;63.60;;;;;;6212675;28;94139;-63
2023/12/06 06:13:56;;;;;;;14.75;13.38;;;24.70;63.60;;;;;;6213913;28;94112;-63
2023/12/06 06:16:57;;;;;;;14.90;13.50;;;24.70;63.70;;;;;;6220530;28;93534;-63
2023/12/06 06:19:59;;;;;;;14.48;13.07;;;24.70;63.70;;;;;;6229220;28;94469;-62
2023/12/06 06:23:01;;;;;;;14.15;12.85;;;24.60;63.60;;;;;;6226938;28;94083;-63
2023/12/06 06:26:04;;;;;;;14.70;13.27;;;24.60;63.60;;;;;;6216274;28;95065;-63
2023/12/06 06:29:08;;;;;;;15.32;13.73;;;24.60;63.60;;;;;;6228703;28;94139;-63
2023/12/06 06:32:10;;;;;;;14.13;12.73;;;24.60;63.50;;;;;;6214588;28;96002;-62
2023/12/06 06:35:12;;;;;;;13.70;12.40;;;24.70;63.60;;;;;;6237472;28;93073;-63
2023/12/06 06:38:14;;;;;;;14.05;12.70;;;24.70;63.60;;;;;;6222897;28;94143;-63
2023/12/06 06:41:16;;;;;;;14.10;12.70;;;24.70;63.60;;;;;;6203959;28;94227;-63
2023/12/06 06:44:19;;;;;;;13.45;12.20;;;24.70;63.60;;;;;;6216881;28;94183;-63
2023/12/06 06:47:21;;;;;;;13.80;12.50;;;24.70;63.60;;;;;;6213021;28;93308;-62
2023/12/06 06:50:23;;;;;;;13.90;12.50;;;24.70;63.50;;;;;;6227775;28;94140;-63
2023/12/06 06:53:25;;;;;;;14.45;13.05;;;24.70;63.50;;;;;;6220779;28;94130;-63
2023/12/06 06:56:27;;;;;;;14.10;12.70;;;24.70;63.50;;;;;;6205413;28;95225;-63
2023/12/06 06:59:30;;;;;;;13.57;12.25;;;24.70;63.50;;;;;;6219405;28;94096;-63
2023/12/06 07:02:32;;;;;;;13.32;12.02;;;24.70;63.50;;;;;;6207884;28;94144;-63
2023/12/06 07:05:34;;;;;;;13.25;12.05;;;24.70;63.40;;;;;;6220544;28;96793;-63
2023/12/06 07:08:36;;;;;;;13.00;11.77;;;24.80;63.50;;;;;;6224109;28;94163;-63
2023/12/06 07:11:40;;;;;;;12.45;11.25;;;24.80;63.40;;;;;;6216766;28;94113;-62
2023/12/06 07:14:43;;;;;;;13.35;12.05;;;24.80;63.50;;;;;;6218904;28;94154;-63
2023/12/06 07:17:46;;;;;;;12.50;11.35;;;24.80;63.50;;;;;;6214786;28;93322;-63
2023/12/06 07:20:48;;;;;;;13.52;12.15;;;24.80;63.50;;;;;;6216977;28;94098;-63
2023/12/06 07:23:50;;;;;;;13.98;12.55;;;24.80;63.50;;;;;;6221086;28;94138;-63
2023/12/06 07:26:52;;;;;;;12.73;11.52;;;24.80;63.50;;;;;;6214882;28;96165;-63
2023/12/06 07:29:57;;;;;;;12.50;11.32;;;24.80;63.50;;;;;;6228346;28;94078;-63
2023/12/06 07:32:59;;;;;;;13.05;11.75;;;24.80;63.50;;;;;;6215428;28;94048;-63
2023/12/06 07:36:01;;;;;;;12.85;11.60;;;24.80;63.40;;;;;;6207392;28;94164;-63
2023/12/06 07:39:05;;;;;;;12.98;11.65;;;24.80;63.80;;;;;;6210085;28;94272;-63
2023/12/06 07:42:07;;;;;;;13.15;11.85;;;24.80;63.40;;;;;;6208982;28;94180;-62
2023/12/06 07:45:11;;;;;;;13.02;11.73;;;24.90;63.40;;;;;;6214988;28;95567;-62
2023/12/06 07:48:13;;;;;;;12.38;11.10;;;24.80;63.40;;;;;;6207768;28;93499;-63
2023/12/06 07:51:15;;;;;;;12.77;11.50;;;24.90;63.40;;;;;;6228804;28;94123;-63
2023/12/06 07:54:19;;;;;;;12.38;11.20;;;24.90;63.40;;;;;;6205737;28;94131;-62
2023/12/06 07:57:27;;;;;;;12.18;11.07;;;24.90;63.40;;;;;;6238425;28;95049;-63
2023/12/06 08:00:30;;;;;;;12.13;10.95;;;24.90;63.40;;;;;;6231741;28;94102;-63
2023/12/06 08:03:32;;;;;;;11.93;10.82;;;24.90;63.40;;;;;;6203720;28;93370;-63
2023/12/06 08:06:34;;;;;;;12.45;11.25;;;24.90;63.40;;;;;;6231873;28;94283;-63
2023/12/06 08:09:36;;;;;;;12.00;10.90;;;24.90;63.40;;;;;;6221454;28;94112;-63
2023/12/06 08:12:38;;;;;;;12.40;11.23;;;24.90;63.50;;;;;;6219657;28;94270;-63
2023/12/06 08:15:42;;;;;;;13.27;11.45;;;24.90;63.50;;;;;;6205689;28;94107;-63
2023/12/06 08:18:44;;;;;;;12.68;11.40;;;24.90;63.50;;;;;;6211229;28;93362;-62
2023/12/06 08:21:46;;;;;;;12.25;11.05;;;24.90;63.50;;;;;;6227954;28;93023;-63
2023/12/06 08:24:48;;;;;;;11.93;10.82;;;24.90;63.40;;;;;;6214346;28;94126;-63
2023/12/06 08:27:50;;;;;;;11.60;10.50;;;24.90;63.50;;;;;;6218926;28;95220;-63
2023/12/06 08:30:54;;;;;;;12.25;11.15;;;24.90;63.50;;;;;;6217177;28;94054;-63
2023/12/06 08:33:57;;;;;;;12.02;10.93;;;24.90;63.40;;;;;;6217985;28;94222;-63
2023/12/06 08:36:59;;;;;;;11.82;10.73;;;24.90;63.40;;;;;;6212959;28;94120;-62
2023/12/06 08:40:01;;;;;;;11.95;10.75;;;25.00;63.50;;;;;;6222987;28;94246;-63
2023/12/06 08:43:03;;;;;;;11.80;10.52;;;24.90;63.40;;;;;;6203971;28;94149;-63
2023/12/06 08:46:07;;;;;;;11.70;10.50;;;24.90;63.40;;;;;;6222493;28;94029;-63
2023/12/06 08:49:09;;;;;;;11.82;10.63;;;25.00;63.50;;;;;;6219912;28;93430;-63
2023/12/06 08:52:11;;;;;;;12.10;10.90;;;24.90;63.40;;;;;;6214881;28;94582;-63
2023/12/06 08:55:13;;;;;;;11.25;10.23;;;25.00;63.50;;;;;;6212427;28;94412;-63
2023/12/06 08:58:16;;;;;;;11.77;10.57;;;24.90;63.40;;;;;;6231760;28;95298;-62
2023/12/06 09:01:19;;;;;;;11.70;10.60;;;24.90;63.50;;;;;;6231612;28;94141;-63
2023/12/06 09:04:21;;;;;;;11.63;10.50;;;24.90;63.50;;;;;;6215580;28;94100;-63
2023/12/06 09:07:24;;;;;;;11.40;10.32;;;24.90;63.50;;;;;;6202506;28;94128;-63
2023/12/06 09:10:27;;;;;;;10.75;9.75;;;24.90;63.50;;;;;;6214753;28;94278;-63
2023/12/06 09:13:29;;;;;;;12.18;10.88;;;25.00;63.50;;;;;;6215148;28;94244;-63
2023/12/06 09:16:32;;;;;;;12.13;10.80;;;25.00;63.60;;;;;;6215873;28;94225;-63
2023/12/06 09:19:34;;;;;;;11.77;10.57;;;24.90;63.50;;;;;;6226877;28;93129;-63
2023/12/06 09:22:36;;;;;;;11.55;10.45;;;25.00;63.60;;;;;;6208890;28;94231;-63
2023/12/06 09:25:38;;;;;;;11.48;10.38;;;25.00;63.70;;;;;;6222852;28;94243;-63
2023/12/06 09:28:40;;;;;;;11.77;10.63;;;25.00;63.60;;;;;;6222012;28;95043;-63
2023/12/06 09:31:43;;;;;;;11.25;10.23;;;25.00;63.60;;;;;;6214068;28;94075;-63
2023/12/06 09:34:48;;;;;;;11.00;9.90;;;25.00;63.60;;;;;;6218814;28;93001;-63
2023/12/06 09:37:50;;;;;;;11.00;9.93;;;25.00;63.60;;;;;;6215633;28;94033;-63
2023/12/06 09:40:52;;;;;;;10.68;9.68;;;25.00;63.70;;;;;;6218449;28;94069;-63
2023/12/06 09:43:54;;;;;;;10.82;9.73;;;25.00;63.70;;;;;;6224962;28;94062;-63
2023/12/06 09:47:00;;;;;;;10.93;9.93;;;25.00;63.70;;;;;;6229977;28;94164;-63
2023/12/06 09:50:02;;;;;;;11.13;10.02;;;25.00;63.70;;;;;;6218705;28;93303;-63
2023/12/06 09:53:04;;;;;;;11.20;10.10;;;25.00;63.70;;;;;;6214651;28;94135;-62
2023/12/06 09:56:09;;;;;;;10.70;9.70;;;25.00;63.70;;;;;;6201229;28;94078;-63
2023/12/06 09:59:11;;;;;;;10.68;9.65;;;25.00;63.70;;;;;;6225009;28;95043;-63
2023/12/06 10:02:14;;;;;;;11.43;10.25;;;25.00;63.70;;;;;;6230974;27;94322;-63
2023/12/06 10:05:17;;;;;;;10.52;9.57;;;25.00;63.80;;;;;;6209774;28;94065;-63
2023/12/06 10:08:19;;;;;;;10.30;9.30;;;25.00;63.80;;;;;;6219756;28;94444;-63
2023/12/06 10:11:24;;;;;;;10.52;9.52;;;25.00;63.80;;;;;;6219230;28;94474;-63
2023/12/06 10:14:26;;;;;;;10.30;9.30;;;25.00;63.80;;;;;;6237515;28;94174;-63
2023/12/06 10:17:29;;;;;;;11.57;9.85;;;25.00;63.80;;;;;;6228430;28;94294;-63
2023/12/06 10:20:31;;;;;;;11.32;9.93;;;25.00;63.80;;;;;;6219851;28;93226;-63
2023/12/06 10:23:33;;;;;;;9.73;8.77;;;25.00;63.80;;;;;;6219897;28;94096;-63
2023/12/06 10:26:35;;;;;;;9.65;8.75;;;25.00;63.80;;;;;;6206298;28;95911;-63
2023/12/06 10:29:37;;;;;;;9.88;8.93;;;25.00;63.90;;;;;;6221583;28;95016;-62
2023/12/06 10:32:42;;;;;;;9.73;8.82;;;25.00;64.00;;;;;;6218855;28;94241;-63
2023/12/06 10:35:44;;;;;;;9.82;8.82;;;25.00;64.00;;;;;;6236908;28;94283;-63
2023/12/06 10:38:47;;;;;;;9.07;8.27;;;25.00;64.00;;;;;;6219358;28;94319;-63
2023/12/06 10:41:53;;;;;;;10.07;9.07;;;25.00;64.00;;;;;;6214925;28;94185;-63
2023/12/06 10:44:56;;;;;;;11.05;9.30;;;25.10;64.00;;;;;;6208508;28;92976;-63
2023/12/06 10:48:00;;;;;;;10.13;8.90;;;25.00;63.90;;;;;;6221485;28;94232;-63
2023/12/06 10:51:03;;;;;;;9.43;8.35;;;25.00;64.00;;;;;;6223154;28;93354;-63
2023/12/06 10:54:06;;;;;;;9.05;8.15;;;25.00;64.00;;;;;;6205421;28;94135;-63
2023/12/06 10:57:09;;;;;;;8.82;8.02;;;25.00;64.00;;;;;;6236193;28;94194;-63
2023/12/06 11:00:12;;;;;;;8.57;7.75;;;25.00;64.10;;;;;;6214989;28;95345;-63
2023/12/06 11:03:16;;;;;;;8.85;8.05;;;25.00;64.90;;;;;;6226039;28;94170;-63
2023/12/06 11:06:26;;;;;;;8.57;7.78;;;25.00;64.10;;;;;;6222084;28;94054;-63
2023/12/06 11:09:39;;;;;;;8.25;7.50;;;25.00;64.20;;;;;;6205610;28;93005;-63
2023/12/06 11:12:58;;;;;;;8.35;7.55;;;25.00;64.20;;;;;;6216341;28;94108;-62
2023/12/06 11:16:09;;;;;;;8.65;7.75;;;25.10;64.20;;;;;;6219638;28;94109;-63
2023/12/06 11:19:14;;;;;;;7.82;7.13;;;25.10;64.20;;;;;;6242042;28;93979;-63
2023/12/06 11:22:16;;;;;;;8.15;7.35;;;25.10;64.20;;;;;;6219557;28;93366;-63
2023/12/06 11:25:20;;;;;;;9.35;7.70;;;25.00;64.00;;;;;;6226540;28;94077;-63
2023/12/06 11:28:23;;;;;;;8.15;7.35;;;25.00;64.10;;;;;;6214026;28;94040;-63
2023/12/06 11:31:35;;;;;;;8.75;7.85;;;25.00;64.10;;;;;;6209069;28;95149;-63
2023/12/06 11:34:40;;;;;;;7.43;6.78;;;25.10;64.20;;;;;;6212606;28;94474;-63
2023/12/06 11:37:52;;;;;;;7.82;7.13;;;25.10;64.20;;;;;;6212797;28;96355;-63
2023/12/06 11:40:54;;;;;;;7.43;6.72;;;25.10;64.20;;;;;;6213819;28;94093;-63
2023/12/06 11:43:56;;;;;;;7.50;6.80;;;25.10;64.20;;;;;;6205475;28;94147;-63
2023/12/06 11:46:58;;;;;;;7.20;6.60;;;25.10;64.20;;;;;;6205886;28;94500;-63
2023/12/06 11:50:03;;;;;;;8.13;6.90;;;25.10;64.20;;;;;;6223089;28;94258;-63
2023/12/06 11:53:06;;;;;;;8.00;7.13;;;25.10;64.20;;;;;;6216409;28;92239;-63
2023/12/06 11:56:09;;;;;;;7.72;7.03;;;25.10;64.30;;;;;;6226231;28;94075;-63
2023/12/06 11:59:12;;;;;;;7.22;6.53;;;25.10;64.30;;;;;;6203576;28;94158;-63
2023/12/06 12:02:14;;;;;;;7.78;7.03;;;25.10;64.40;;;;;;6216648;28;95367;-63
2023/12/06 12:05:18;;;;;;;7.47;6.78;;;25.10;64.30;;;;;;6220808;28;94154;-63
2023/12/06 12:08:21;;;;;;;6.53;5.93;;;25.10;64.40;;;;;;6211754;28;94045;-63
2023/12/06 12:11:23;;;;;;;7.47;6.78;;;25.10;64.40;;;;;;6222272;28;94151;-63
2023/12/06 12:14:33;;;;;;;8.07;6.60;;;25.10;64.40;;;;;;6211579;28;94231;-63
2023/12/06 12:17:36;;;;;;;7.50;6.78;;;25.10;64.40;;;;;;6216867;28;94262;-63
2023/12/06 12:20:39;;;;;;;7.82;7.03;;;25.10;64.40;;;;;;6209622;28;93065;-63
2023/12/06 12:23:41;;;;;;;7.80;6.97;;;25.10;64.40;;;;;;6231897;28;93437;-63
2023/12/06 12:26:44;;;;;;;8.20;7.40;;;25.10;64.40;;;;;;6225221;28;94062;-63
2023/12/06 12:29:46;;;;;;;8.63;7.55;;;25.10;64.40;;;;;;6215705;28;94026;-63
2023/12/06 12:32:50;;;;;;;8.27;7.57;;;25.20;64.50;;;;;;6213545;28;95064;-63
2023/12/06 12:35:54;;;;;;;7.95;7.15;;;25.20;64.60;;;;;;6222210;28;94182;-63
2023/12/06 12:38:56;;;;;;;8.35;7.45;;;25.20;64.60;;;;;;6223814;28;93039;-63
2023/12/06 12:41:59;;;;;;;8.93;8.02;;;25.20;64.50;;;;;;6223098;28;94317;-63
2023/12/06 12:45:03;;;;;;;8.48;7.60;;;25.20;64.60;;;;;;6220460;28;94013;-63
2023/12/06 12:48:06;;;;;;;8.52;7.47;;;25.20;64.60;;;;;;6215984;28;94242;-63
2023/12/06 12:51:12;;;;;;;8.80;7.90;;;25.20;64.60;;;;;;6219756;28;94162;-63
2023/12/06 12:54:16;;;;;;;10.15;8.38;;;25.20;64.60;;;;;;6213892;28;94197;-63
2023/12/06 12:57:18;;;;;;;9.32;8.02;;;25.20;64.50;;;;;;6229964;28;94080;-63
2023/12/06 13:00:21;;;;;;;8.18;7.43;;;25.20;64.60;;;;;;6203992;28;94123;-63
2023/12/06 13:03:27;;;;;;;9.15;8.35;;;25.20;64.50;;;;;;6214013;28;95120;-63
2023/12/06 13:06:30;;;;;;;8.80;8.00;;;25.20;64.50;;;;;;6239100;28;94273;-63
2023/12/06 13:09:33;;;;;;;8.88;8.07;;;25.20;64.50;;;;;;6238502;28;94403;-63
2023/12/06 13:12:36;;;;;;;9.23;8.40;;;25.20;64.60;;;;;;6233052;28;94099;-63
2023/12/06 13:15:38;;;;;;;9.30;8.40;;;25.20;64.60;;;;;;6213523;28;94259;-63
2023/12/06 13:18:40;;;;;;;8.63;7.75;;;25.20;64.60;;;;;;6235302;28;94049;-63
2023/12/06 13:21:43;;;;;;;10.30;9.13;;;25.20;64.60;;;;;;6237197;28;94158;-63
2023/12/06 13:24:45;;;;;;;9.45;8.50;;;25.20;64.60;;;;;;6213052;28;93353;-63
2023/12/06 13:27:47;;;;;;;8.52;7.72;;;25.20;64.60;;;;;;6209678;28;94117;-63
2023/12/06 13:30:52;;;;;;;9.07;8.20;;;25.20;64.60;;;;;;6212516;28;94470;-63
2023/12/06 13:33:54;;;;;;;9.18;8.27;;;25.20;64.60;;;;;;6221351;28;94942;-63
2023/12/06 13:36:58;;;;;;;8.65;7.85;;;25.20;64.70;;;;;;6224156;28;94105;-63
2023/12/06 13:40:00;;;;;;;8.60;7.80;;;25.20;64.60;;;;;;6228778;28;94610;-63
2023/12/06 13:43:03;;;;;;;9.27;8.38;;;25.20;64.60;;;;;;6233432;28;94088;-63
2023/12/06 13:46:05;;;;;;;8.60;7.85;;;25.20;64.70;;;;;;6209906;28;94300;-63
2023/12/06 13:49:07;;;;;;;9.45;8.55;;;25.20;64.60;;;;;;6229134;28;94157;-62
2023/12/06 13:52:12;;;;;;;9.55;8.57;;;25.20;64.70;;;;;;6229034;28;94057;-63
2023/12/06 13:55:14;;;;;;;9.13;8.25;;;25.20;64.60;;;;;;6206466;28;93608;-63
2023/12/06 13:58:16;;;;;;;8.77;7.97;;;25.20;64.70;;;;;;6206702;28;94066;-63
2023/12/06 14:01:18;;;;;;;9.77;8.73;;;25.20;64.70;;;;;;6219541;28;93912;-63
2023/12/06 14:04:20;;;;;;;10.13;9.05;;;25.30;64.80;;;;;;6218275;28;95087;-63
2023/12/06 14:07:23;;;;;;;8.90;8.10;;;25.30;64.80;;;;;;6209324;28;94287;-63
2023/12/06 14:10:25;;;;;;;8.73;7.93;;;25.20;64.60;;;;;;6230085;28;94066;-63
2023/12/06 14:13:27;;;;;;;9.02;8.15;;;25.30;64.80;;;;;;6208293;28;94026;-63
2023/12/06 14:16:29;;;;;;;8.85;7.97;;;25.30;65.00;;;;;;6219050;28;94123;-63
2023/12/06 14:19:31;;;;;;;8.77;7.97;;;25.30;65.00;;;;;;6220826;28;94135;-63
2023/12/06 14:22:34;;;;;;;9.15;8.35;;;25.20;65.00;;;;;;6208958;28;94242;-63
2023/12/06 14:25:36;;;;;;;9.43;8.52;;;25.20;65.20;;;;;;6208275;28;93567;-63
2023/12/06 14:28:39;;;;;;;8.80;8.00;;;25.20;65.20;;;;;;6221398;28;92942;-63
2023/12/06 14:31:41;;;;;;;11.07;9.35;;;25.20;65.20;;;;;;6214001;28;94287;-62
2023/12/06 14:34:42;;;;;;;8.98;8.18;;;25.20;65.20;;;;;;6226733;28;95065;-63
2023/12/06 14:37:46;;;;;;;8.68;7.88;;;25.20;65.30;;;;;;6218668;28;94160;-63
2023/12/06 14:40:48;;;;;;;9.27;8.35;;;25.20;65.50;;;;;;6233546;28;94254;-62
2023/12/06 14:43:50;;;;;;;11.82;8.30;;;25.20;65.90;;;;;;6216088;28;94442;-63
2023/12/06 14:46:53;;;;;;;12.27;8.40;;;25.10;66.50;;;;;;6215537;28;94260;-64
2023/12/06 14:49:55;;;;;;;9.82;8.15;;;25.10;66.70;;;;;;6226839;28;92994;-63
2023/12/06 14:52:59;;;;;;;8.63;7.72;;;25.10;66.70;;;;;;6219356;28;94149;-63
2023/12/06 14:56:01;;;;;;;8.90;8.00;;;25.10;66.60;;;;;;6217739;28;93469;-64
2023/12/06 14:59:04;;;;;;;8.50;7.53;;;25.10;66.40;;;;;;6220114;28;94008;-63
2023/12/06 15:02:08;;;;;;;8.88;7.55;;;25.00;66.40;;;;;;6214797;28;94155;-63
2023/12/06 15:05:10;;;;;;;9.27;7.03;;;25.00;66.20;;;;;;6231951;28;95044;-63
2023/12/06 15:08:14;;;;;;;8.95;7.38;;;25.00;65.90;;;;;;6217094;28;93979;-64
2023/12/06 15:11:16;;;;;;;8.90;7.78;;;25.00;65.90;;;;;;6213025;28;94156;-64
2023/12/06 15:14:18;;;;;;;7.80;7.00;;;24.90;65.90;;;;;;6221565;28;94091;-64
2023/12/06 15:17:22;;;;;;;11.48;7.53;;;25.00;66.00;;;;;;6219509;28;94104;-64
2023/12/06 15:20:24;;;;;;;8.55;6.90;;;25.00;65.50;;;;;;6215517;28;94177;-63
2023/12/06 15:23:27;;;;;;;7.53;6.82;;;24.90;65.50;;;;;;6217863;28;94032;-63
2023/12/06 15:26:29;;;;;;;6.75;6.15;;;24.90;65.50;;;;;;6214044;28;93701;-64
2023/12/06 15:29:31;;;;;;;9.07;6.40;;;24.90;64.90;;;;;;6217813;28;94047;-63
2023/12/06 15:32:33;;;;;;;7.80;7.03;;;24.90;65.20;;;;;;6213692;28;94129;-63
2023/12/06 15:35:35;;;;;;;7.47;6.70;;;24.80;65.50;;;;;;6209007;28;95000;-63